sensor_id;sensor_type;location;lat;lon;timestamp;P1;durP1;ratioP1;P2;durP2;ratioP2
61407;SDS011;47274;43.054;25.146;2023-04-24T00:01:14;16.40;;;5.60;;
61407;SDS011;47274;43.054;25.146;2023-04-24T00:03:40;13.55;;;5.60;;
61407;SDS011;47274;43.054;25.146;2023-04-24T00:06:06;10.20;;;4.82;;
61407;SDS011;47274;43.054;25.146;2023-04-24T00:08:38;14.43;;;5.57;;
61407;SDS011;47274;43.054;25.146;2023-04-24T00:11:04;14.07;;;5.00;;
61407;SDS011;47274;43.054;25.146;2023-04-24T00:13:34;11.57;;;5.55;;
61407;SDS011;47274;43.054;25.146;2023-04-24T00:16:00;14.23;;;5.05;;
61407;SDS011;47274;43.054;25.146;2023-04-24T00:18:26;9.40;;;5.20;;
61407;SDS011;47274;43.054;25.146;2023-04-24T00:20:55;10.85;;;4.90;;
61407;SDS011;47274;43.054;25.146;2023-04-24T00:23:21;12.05;;;5.32;;
61407;SDS011;47274;43.054;25.146;2023-04-24T00:25:47;11.57;;;5.10;;
61407;SDS011;47274;43.054;25.146;2023-04-24T00:28:16;13.38;;;5.30;;
61407;SDS011;47274;43.054;25.146;2023-04-24T00:30:42;14.02;;;5.30;;
61407;SDS011;47274;43.054;25.146;2023-04-24T00:33:10;12.02;;;5.35;;
61407;SDS011;47274;43.054;25.146;2023-04-24T00:35:36;10.63;;;5.05;;
61407;SDS011;47274;43.054;25.146;2023-04-24T00:38:02;13.38;;;5.18;;
61407;SDS011;47274;43.054;25.146;2023-04-24T00:40:28;14.27;;;5.32;;
61407;SDS011;47274;43.054;25.146;2023-04-24T00:43:00;13.68;;;5.50;;
61407;SDS011;47274;43.054;25.146;2023-04-24T00:45:32;8.43;;;4.72;;
61407;SDS011;47274;43.054;25.146;2023-04-24T00:48:04;10.57;;;4.75;;
61407;SDS011;47274;43.054;25.146;2023-04-24T00:50:30;14.63;;;5.90;;
61407;SDS011;47274;43.054;25.146;2023-04-24T00:52:56;11.57;;;5.50;;
61407;SDS011;47274;43.054;25.146;2023-04-24T00:55:22;13.65;;;5.75;;
61407;SDS011;47274;43.054;25.146;2023-04-24T00:57:49;13.98;;;5.28;;
61407;SDS011;47274;43.054;25.146;2023-04-24T01:00:26;7.55;;;4.63;;
61407;SDS011;47274;43.054;25.146;2023-04-24T01:02:53;10.13;;;5.03;;
61407;SDS011;47274;43.054;25.146;2023-04-24T01:05:19;11.57;;;5.47;;
61407;SDS011;47274;43.054;25.146;2023-04-24T01:07:51;10.23;;;4.97;;
61407;SDS011;47274;43.054;25.146;2023-04-24T01:10:17;13.88;;;5.50;;
61407;SDS011;47274;43.054;25.146;2023-04-24T01:12:48;14.52;;;5.30;;
61407;SDS011;47274;43.054;25.146;2023-04-24T01:15:21;10.75;;;5.03;;
61407;SDS011;47274;43.054;25.146;2023-04-24T01:17:49;10.95;;;5.07;;
61407;SDS011;47274;43.054;25.146;2023-04-24T01:20:16;9.95;;;5.32;;
61407;SDS011;47274;43.054;25.146;2023-04-24T01:22:42;10.55;;;5.20;;
61407;SDS011;47274;43.054;25.146;2023-04-24T01:25:08;15.48;;;5.57;;
61407;SDS011;47274;43.054;25.146;2023-04-24T01:27:40;12.77;;;5.20;;
61407;SDS011;47274;43.054;25.146;2023-04-24T01:30:06;12.02;;;5.22;;
61407;SDS011;47274;43.054;25.146;2023-04-24T01:32:33;11.00;;;4.95;;
61407;SDS011;47274;43.054;25.146;2023-04-24T01:35:05;14.10;;;5.63;;
61407;SDS011;47274;43.054;25.146;2023-04-24T01:37:32;13.40;;;5.82;;
61407;SDS011;47274;43.054;25.146;2023-04-24T01:39:58;11.45;;;5.18;;
61407;SDS011;47274;43.054;25.146;2023-04-24T01:42:28;15.90;;;5.65;;
61407;SDS011;47274;43.054;25.146;2023-04-24T01:44:54;12.20;;;4.68;;
61407;SDS011;47274;43.054;25.146;2023-04-24T01:47:23;12.27;;;5.43;;
61407;SDS011;47274;43.054;25.146;2023-04-24T01:49:53;14.88;;;5.75;;
61407;SDS011;47274;43.054;25.146;2023-04-24T01:52:19;18.13;;;5.40;;
61407;SDS011;47274;43.054;25.146;2023-04-24T01:54:46;10.48;;;4.80;;
61407;SDS011;47274;43.054;25.146;2023-04-24T01:57:15;14.32;;;5.30;;
61407;SDS011;47274;43.054;25.146;2023-04-24T01:59:42;11.60;;;5.28;;
61407;SDS011;47274;43.054;25.146;2023-04-24T02:02:10;12.52;;;5.18;;
61407;SDS011;47274;43.054;25.146;2023-04-24T02:04:36;12.90;;;5.60;;
61407;SDS011;47274;43.054;25.146;2023-04-24T02:07:05;11.75;;;5.20;;
61407;SDS011;47274;43.054;25.146;2023-04-24T02:09:37;14.13;;;5.70;;
61407;SDS011;47274;43.054;25.146;2023-04-24T02:12:04;9.90;;;5.00;;
61407;SDS011;47274;43.054;25.146;2023-04-24T02:14:33;15.05;;;5.47;;
61407;SDS011;47274;43.054;25.146;2023-04-24T02:16:59;13.40;;;5.55;;
61407;SDS011;47274;43.054;25.146;2023-04-24T02:19:26;13.45;;;5.70;;
61407;SDS011;47274;43.054;25.146;2023-04-24T02:21:52;13.43;;;5.45;;
61407;SDS011;47274;43.054;25.146;2023-04-24T02:24:17;13.73;;;5.55;;
61407;SDS011;47274;43.054;25.146;2023-04-24T02:26:49;14.07;;;5.32;;
61407;SDS011;47274;43.054;25.146;2023-04-24T02:29:24;12.40;;;4.95;;
61407;SDS011;47274;43.054;25.146;2023-04-24T02:31:52;14.00;;;5.90;;
61407;SDS011;47274;43.054;25.146;2023-04-24T02:34:18;13.93;;;5.55;;
61407;SDS011;47274;43.054;25.146;2023-04-24T02:36:44;15.73;;;5.88;;
61407;SDS011;47274;43.054;25.146;2023-04-24T02:39:10;12.05;;;5.68;;
61407;SDS011;47274;43.054;25.146;2023-04-24T02:41:39;13.75;;;6.38;;
61407;SDS011;47274;43.054;25.146;2023-04-24T02:44:05;15.80;;;5.90;;
61407;SDS011;47274;43.054;25.146;2023-04-24T02:46:31;11.88;;;5.32;;
61407;SDS011;47274;43.054;25.146;2023-04-24T02:48:57;13.20;;;5.60;;
61407;SDS011;47274;43.054;25.146;2023-04-24T02:51:23;13.18;;;5.32;;
61407;SDS011;47274;43.054;25.146;2023-04-24T02:53:48;12.55;;;5.70;;
61407;SDS011;47274;43.054;25.146;2023-04-24T02:56:14;13.45;;;5.80;;
61407;SDS011;47274;43.054;25.146;2023-04-24T02:58:46;13.80;;;5.90;;
61407;SDS011;47274;43.054;25.146;2023-04-24T03:01:12;14.10;;;6.18;;
61407;SDS011;47274;43.054;25.146;2023-04-24T03:03:41;11.98;;;5.60;;
61407;SDS011;47274;43.054;25.146;2023-04-24T03:06:06;11.95;;;5.60;;
61407;SDS011;47274;43.054;25.146;2023-04-24T03:08:33;13.70;;;5.65;;
61407;SDS011;47274;43.054;25.146;2023-04-24T03:11:00;16.13;;;5.75;;
61407;SDS011;47274;43.054;25.146;2023-04-24T03:13:26;14.30;;;5.90;;
61407;SDS011;47274;43.054;25.146;2023-04-24T03:15:51;13.52;;;5.72;;
61407;SDS011;47274;43.054;25.146;2023-04-24T03:18:19;11.45;;;5.65;;
61407;SDS011;47274;43.054;25.146;2023-04-24T03:20:46;10.02;;;5.25;;
61407;SDS011;47274;43.054;25.146;2023-04-24T03:23:13;12.25;;;5.65;;
61407;SDS011;47274;43.054;25.146;2023-04-24T03:25:48;16.38;;;6.28;;
61407;SDS011;47274;43.054;25.146;2023-04-24T03:28:18;12.45;;;5.63;;
61407;SDS011;47274;43.054;25.146;2023-04-24T03:30:53;16.17;;;5.80;;
61407;SDS011;47274;43.054;25.146;2023-04-24T03:33:20;14.82;;;5.38;;
61407;SDS011;47274;43.054;25.146;2023-04-24T03:36:12;12.15;;;5.78;;
61407;SDS011;47274;43.054;25.146;2023-04-24T03:38:40;14.98;;;5.97;;
61407;SDS011;47274;43.054;25.146;2023-04-24T03:41:18;13.77;;;5.72;;
61407;SDS011;47274;43.054;25.146;2023-04-24T03:43:48;11.98;;;5.80;;
61407;SDS011;47274;43.054;25.146;2023-04-24T03:46:14;14.95;;;6.25;;
61407;SDS011;47274;43.054;25.146;2023-04-24T03:48:46;14.48;;;5.90;;
61407;SDS011;47274;43.054;25.146;2023-04-24T03:51:14;14.43;;;5.65;;
61407;SDS011;47274;43.054;25.146;2023-04-24T03:53:43;15.73;;;6.18;;
61407;SDS011;47274;43.054;25.146;2023-04-24T03:56:16;13.05;;;5.43;;
61407;SDS011;47274;43.054;25.146;2023-04-24T03:58:42;13.07;;;5.28;;
61407;SDS011;47274;43.054;25.146;2023-04-24T04:01:09;13.57;;;5.65;;
61407;SDS011;47274;43.054;25.146;2023-04-24T04:03:48;13.90;;;5.30;;
61407;SDS011;47274;43.054;25.146;2023-04-24T04:06:18;11.95;;;5.65;;
61407;SDS011;47274;43.054;25.146;2023-04-24T04:08:45;9.27;;;4.90;;
61407;SDS011;47274;43.054;25.146;2023-04-24T04:11:14;10.07;;;5.50;;
61407;SDS011;47274;43.054;25.146;2023-04-24T04:13:40;14.00;;;5.20;;
61407;SDS011;47274;43.054;25.146;2023-04-24T04:16:06;10.38;;;5.07;;
61407;SDS011;47274;43.054;25.146;2023-04-24T04:18:34;12.48;;;5.25;;
61407;SDS011;47274;43.054;25.146;2023-04-24T04:21:01;11.75;;;5.40;;
61407;SDS011;47274;43.054;25.146;2023-04-24T04:23:27;14.45;;;5.15;;
61407;SDS011;47274;43.054;25.146;2023-04-24T04:26:03;12.50;;;5.38;;
61407;SDS011;47274;43.054;25.146;2023-04-24T04:28:45;11.55;;;5.22;;
61407;SDS011;47274;43.054;25.146;2023-04-24T04:31:13;13.20;;;4.93;;
61407;SDS011;47274;43.054;25.146;2023-04-24T04:33:39;13.13;;;5.40;;
61407;SDS011;47274;43.054;25.146;2023-04-24T04:36:21;11.27;;;5.13;;
61407;SDS011;47274;43.054;25.146;2023-04-24T04:38:53;12.43;;;5.10;;
61407;SDS011;47274;43.054;25.146;2023-04-24T04:41:38;11.60;;;5.70;;
61407;SDS011;47274;43.054;25.146;2023-04-24T04:44:07;12.38;;;5.32;;
61407;SDS011;47274;43.054;25.146;2023-04-24T04:46:35;10.90;;;4.85;;
61407;SDS011;47274;43.054;25.146;2023-04-24T04:49:22;13.95;;;5.18;;
61407;SDS011;47274;43.054;25.146;2023-04-24T04:51:50;15.68;;;5.53;;
61407;SDS011;47274;43.054;25.146;2023-04-24T04:54:21;10.50;;;4.97;;
61407;SDS011;47274;43.054;25.146;2023-04-24T04:56:49;11.20;;;5.10;;
61407;SDS011;47274;43.054;25.146;2023-04-24T04:59:18;9.95;;;5.22;;
61407;SDS011;47274;43.054;25.146;2023-04-24T05:01:47;13.30;;;5.23;;
61407;SDS011;47274;43.054;25.146;2023-04-24T05:04:14;10.43;;;4.90;;
61407;SDS011;47274;43.054;25.146;2023-04-24T05:06:43;11.55;;;4.80;;
61407;SDS011;47274;43.054;25.146;2023-04-24T05:09:09;11.23;;;5.28;;
61407;SDS011;47274;43.054;25.146;2023-04-24T05:11:44;9.65;;;4.88;;
61407;SDS011;47274;43.054;25.146;2023-04-24T05:14:10;11.45;;;5.00;;
61407;SDS011;47274;43.054;25.146;2023-04-24T05:16:39;11.23;;;4.85;;
61407;SDS011;47274;43.054;25.146;2023-04-24T05:19:10;8.35;;;4.70;;
61407;SDS011;47274;43.054;25.146;2023-04-24T05:21:40;11.65;;;5.00;;
61407;SDS011;47274;43.054;25.146;2023-04-24T05:24:07;10.63;;;4.97;;
61407;SDS011;47274;43.054;25.146;2023-04-24T05:26:51;10.70;;;4.70;;
61407;SDS011;47274;43.054;25.146;2023-04-24T05:29:22;13.05;;;5.28;;
61407;SDS011;47274;43.054;25.146;2023-04-24T05:31:48;10.90;;;5.13;;
61407;SDS011;47274;43.054;25.146;2023-04-24T05:34:14;10.50;;;4.80;;
61407;SDS011;47274;43.054;25.146;2023-04-24T05:36:44;11.57;;;5.18;;
61407;SDS011;47274;43.054;25.146;2023-04-24T05:39:10;11.50;;;5.10;;
61407;SDS011;47274;43.054;25.146;2023-04-24T05:41:35;10.20;;;4.97;;
61407;SDS011;47274;43.054;25.146;2023-04-24T05:44:01;10.98;;;4.57;;
61407;SDS011;47274;43.054;25.146;2023-04-24T05:46:27;10.68;;;5.18;;
61407;SDS011;47274;43.054;25.146;2023-04-24T05:48:57;10.80;;;5.43;;
61407;SDS011;47274;43.054;25.146;2023-04-24T05:51:23;12.25;;;4.95;;
61407;SDS011;47274;43.054;25.146;2023-04-24T05:53:58;10.52;;;5.13;;
61407;SDS011;47274;43.054;25.146;2023-04-24T05:56:25;9.98;;;5.07;;
61407;SDS011;47274;43.054;25.146;2023-04-24T05:58:51;8.75;;;4.35;;
61407;SDS011;47274;43.054;25.146;2023-04-24T06:01:16;12.07;;;4.97;;
61407;SDS011;47274;43.054;25.146;2023-04-24T06:03:49;9.15;;;4.97;;
61407;SDS011;47274;43.054;25.146;2023-04-24T06:06:15;11.82;;;5.38;;
61407;SDS011;47274;43.054;25.146;2023-04-24T06:08:41;11.32;;;5.13;;
61407;SDS011;47274;43.054;25.146;2023-04-24T06:11:10;10.65;;;4.90;;
61407;SDS011;47274;43.054;25.146;2023-04-24T06:13:38;9.48;;;4.78;;
61407;SDS011;47274;43.054;25.146;2023-04-24T06:16:23;12.85;;;5.53;;
61407;SDS011;47274;43.054;25.146;2023-04-24T06:18:59;11.35;;;5.18;;
61407;SDS011;47274;43.054;25.146;2023-04-24T06:21:25;10.05;;;5.57;;
61407;SDS011;47274;43.054;25.146;2023-04-24T06:23:53;11.65;;;5.68;;
61407;SDS011;47274;43.054;25.146;2023-04-24T06:26:21;11.30;;;5.25;;
61407;SDS011;47274;43.054;25.146;2023-04-24T06:28:47;12.15;;;5.55;;
61407;SDS011;47274;43.054;25.146;2023-04-24T06:31:13;12.07;;;5.72;;
61407;SDS011;47274;43.054;25.146;2023-04-24T06:33:39;12.98;;;6.15;;
61407;SDS011;47274;43.054;25.146;2023-04-24T06:36:05;9.57;;;4.93;;
61407;SDS011;47274;43.054;25.146;2023-04-24T06:38:38;13.32;;;5.68;;
61407;SDS011;47274;43.054;25.146;2023-04-24T06:41:03;10.90;;;5.00;;
61407;SDS011;47274;43.054;25.146;2023-04-24T06:43:31;12.45;;;5.50;;
61407;SDS011;47274;43.054;25.146;2023-04-24T06:45:57;11.35;;;5.47;;
61407;SDS011;47274;43.054;25.146;2023-04-24T06:48:24;9.02;;;5.35;;
61407;SDS011;47274;43.054;25.146;2023-04-24T06:50:51;15.05;;;7.15;;
61407;SDS011;47274;43.054;25.146;2023-04-24T06:53:17;8.00;;;5.20;;
61407;SDS011;47274;43.054;25.146;2023-04-24T06:55:43;10.20;;;5.53;;
61407;SDS011;47274;43.054;25.146;2023-04-24T06:58:18;12.40;;;5.85;;
61407;SDS011;47274;43.054;25.146;2023-04-24T07:00:50;12.23;;;5.70;;
61407;SDS011;47274;43.054;25.146;2023-04-24T07:03:16;11.60;;;5.72;;
61407;SDS011;47274;43.054;25.146;2023-04-24T07:05:42;12.32;;;5.85;;
61407;SDS011;47274;43.054;25.146;2023-04-24T07:08:08;10.85;;;5.97;;
61407;SDS011;47274;43.054;25.146;2023-04-24T07:10:37;11.75;;;6.53;;
61407;SDS011;47274;43.054;25.146;2023-04-24T07:13:03;12.50;;;6.88;;
61407;SDS011;47274;43.054;25.146;2023-04-24T07:15:29;11.82;;;6.30;;
61407;SDS011;47274;43.054;25.146;2023-04-24T07:17:58;9.57;;;5.82;;
61407;SDS011;47274;43.054;25.146;2023-04-24T07:20:23;12.13;;;6.32;;
61407;SDS011;47274;43.054;25.146;2023-04-24T07:22:49;10.63;;;5.88;;
61407;SDS011;47274;43.054;25.146;2023-04-24T07:25:16;13.77;;;6.40;;
61407;SDS011;47274;43.054;25.146;2023-04-24T07:27:42;16.67;;;7.35;;
61407;SDS011;47274;43.054;25.146;2023-04-24T07:30:08;15.20;;;7.35;;
61407;SDS011;47274;43.054;25.146;2023-04-24T07:32:34;14.35;;;7.10;;
61407;SDS011;47274;43.054;25.146;2023-04-24T07:35:04;15.05;;;6.80;;
61407;SDS011;47274;43.054;25.146;2023-04-24T07:37:33;17.45;;;7.70;;
61407;SDS011;47274;43.054;25.146;2023-04-24T07:40:01;15.23;;;6.05;;
61407;SDS011;47274;43.054;25.146;2023-04-24T07:42:30;11.75;;;6.63;;
61407;SDS011;47274;43.054;25.146;2023-04-24T07:44:56;13.25;;;6.47;;
61407;SDS011;47274;43.054;25.146;2023-04-24T07:47:22;11.95;;;6.00;;
61407;SDS011;47274;43.054;25.146;2023-04-24T07:49:48;14.10;;;6.43;;
61407;SDS011;47274;43.054;25.146;2023-04-24T07:52:13;15.77;;;7.05;;
61407;SDS011;47274;43.054;25.146;2023-04-24T07:54:39;16.55;;;6.97;;
61407;SDS011;47274;43.054;25.146;2023-04-24T07:57:05;16.48;;;6.75;;
61407;SDS011;47274;43.054;25.146;2023-04-24T07:59:37;14.05;;;6.97;;
61407;SDS011;47274;43.054;25.146;2023-04-24T08:02:03;13.95;;;6.25;;
61407;SDS011;47274;43.054;25.146;2023-04-24T08:04:29;12.20;;;6.78;;
61407;SDS011;47274;43.054;25.146;2023-04-24T08:06:55;11.65;;;5.75;;
61407;SDS011;47274;43.054;25.146;2023-04-24T08:09:23;13.40;;;6.40;;
61407;SDS011;47274;43.054;25.146;2023-04-24T08:11:52;9.65;;;5.78;;
61407;SDS011;47274;43.054;25.146;2023-04-24T08:14:19;10.68;;;5.68;;
61407;SDS011;47274;43.054;25.146;2023-04-24T08:16:47;12.35;;;6.05;;
61407;SDS011;47274;43.054;25.146;2023-04-24T08:19:19;10.65;;;5.68;;
61407;SDS011;47274;43.054;25.146;2023-04-24T08:21:48;10.68;;;5.57;;
61407;SDS011;47274;43.054;25.146;2023-04-24T08:24:14;8.32;;;5.40;;
61407;SDS011;47274;43.054;25.146;2023-04-24T08:26:39;10.35;;;5.22;;
61407;SDS011;47274;43.054;25.146;2023-04-24T08:29:08;10.48;;;5.50;;
61407;SDS011;47274;43.054;25.146;2023-04-24T08:31:33;10.50;;;5.60;;
61407;SDS011;47274;43.054;25.146;2023-04-24T08:34:03;9.45;;;5.40;;
61407;SDS011;47274;43.054;25.146;2023-04-24T08:36:32;9.65;;;5.43;;
61407;SDS011;47274;43.054;25.146;2023-04-24T08:38:57;8.75;;;5.68;;
61407;SDS011;47274;43.054;25.146;2023-04-24T08:41:26;12.68;;;6.18;;
61407;SDS011;47274;43.054;25.146;2023-04-24T08:43:53;10.68;;;5.75;;
61407;SDS011;47274;43.054;25.146;2023-04-24T08:46:26;8.27;;;5.32;;
61407;SDS011;47274;43.054;25.146;2023-04-24T08:48:59;8.40;;;4.80;;
61407;SDS011;47274;43.054;25.146;2023-04-24T08:51:26;8.60;;;5.00;;
61407;SDS011;47274;43.054;25.146;2023-04-24T08:53:55;9.43;;;5.30;;
61407;SDS011;47274;43.054;25.146;2023-04-24T08:56:26;8.27;;;5.30;;
61407;SDS011;47274;43.054;25.146;2023-04-24T08:58:54;10.00;;;6.20;;
61407;SDS011;47274;43.054;25.146;2023-04-24T09:01:21;12.85;;;6.38;;
61407;SDS011;47274;43.054;25.146;2023-04-24T09:03:49;10.98;;;5.88;;
61407;SDS011;47274;43.054;25.146;2023-04-24T09:06:16;12.23;;;5.63;;
61407;SDS011;47274;43.054;25.146;2023-04-24T09:08:45;10.50;;;5.40;;
61407;SDS011;47274;43.054;25.146;2023-04-24T09:11:16;10.38;;;5.70;;
61407;SDS011;47274;43.054;25.146;2023-04-24T09:13:45;7.78;;;5.13;;
61407;SDS011;47274;43.054;25.146;2023-04-24T09:16:12;9.95;;;5.25;;
61407;SDS011;47274;43.054;25.146;2023-04-24T09:18:42;9.63;;;4.80;;
61407;SDS011;47274;43.054;25.146;2023-04-24T09:21:08;7.80;;;4.80;;
61407;SDS011;47274;43.054;25.146;2023-04-24T09:26:06;8.07;;;4.90;;
61407;SDS011;47274;43.054;25.146;2023-04-24T09:28:39;8.15;;;5.07;;
61407;SDS011;47274;43.054;25.146;2023-04-24T09:31:09;9.65;;;6.00;;
61407;SDS011;47274;43.054;25.146;2023-04-24T09:33:39;11.02;;;5.22;;
61407;SDS011;47274;43.054;25.146;2023-04-24T09:36:08;9.57;;;4.70;;
61407;SDS011;47274;43.054;25.146;2023-04-24T09:38:40;9.77;;;5.00;;
61407;SDS011;47274;43.054;25.146;2023-04-24T09:41:13;8.23;;;4.47;;
61407;SDS011;47274;43.054;25.146;2023-04-24T09:43:39;7.72;;;4.90;;
61407;SDS011;47274;43.054;25.146;2023-04-24T09:46:06;9.48;;;5.43;;
61407;SDS011;47274;43.054;25.146;2023-04-24T09:48:36;10.80;;;5.00;;
61407;SDS011;47274;43.054;25.146;2023-04-24T09:51:03;8.32;;;5.05;;
61407;SDS011;47274;43.054;25.146;2023-04-24T09:53:32;6.55;;;4.70;;
61407;SDS011;47274;43.054;25.146;2023-04-24T09:56:08;9.00;;;4.80;;
61407;SDS011;47274;43.054;25.146;2023-04-24T09:58:41;10.75;;;5.68;;
61407;SDS011;47274;43.054;25.146;2023-04-24T10:01:13;9.63;;;5.10;;
61407;SDS011;47274;43.054;25.146;2023-04-24T10:03:39;8.82;;;5.28;;
61407;SDS011;47274;43.054;25.146;2023-04-24T10:06:11;16.52;;;8.13;;
61407;SDS011;47274;43.054;25.146;2023-04-24T10:08:38;11.18;;;5.05;;
61407;SDS011;47274;43.054;25.146;2023-04-24T10:11:07;11.13;;;5.20;;
61407;SDS011;47274;43.054;25.146;2023-04-24T10:13:36;9.50;;;4.80;;
61407;SDS011;47274;43.054;25.146;2023-04-24T10:16:03;8.80;;;5.40;;
61407;SDS011;47274;43.054;25.146;2023-04-24T10:18:29;12.50;;;5.55;;
61407;SDS011;47274;43.054;25.146;2023-04-24T10:20:56;11.32;;;5.53;;
61407;SDS011;47274;43.054;25.146;2023-04-24T10:23:22;10.70;;;5.70;;
61407;SDS011;47274;43.054;25.146;2023-04-24T10:25:51;10.85;;;5.00;;
61407;SDS011;47274;43.054;25.146;2023-04-24T10:28:18;10.93;;;5.60;;
61407;SDS011;47274;43.054;25.146;2023-04-24T10:30:47;9.38;;;5.35;;
61407;SDS011;47274;43.054;25.146;2023-04-24T10:33:20;10.00;;;5.30;;
61407;SDS011;47274;43.054;25.146;2023-04-24T10:35:50;10.07;;;5.28;;
61407;SDS011;47274;43.054;25.146;2023-04-24T10:38:18;11.85;;;5.40;;
61407;SDS011;47274;43.054;25.146;2023-04-24T10:40:50;8.98;;;4.88;;
61407;SDS011;47274;43.054;25.146;2023-04-24T10:43:18;15.45;;;6.65;;
61407;SDS011;47274;43.054;25.146;2023-04-24T10:48:31;14.82;;;6.88;;
61407;SDS011;47274;43.054;25.146;2023-04-24T10:50:57;11.65;;;5.85;;
61407;SDS011;47274;43.054;25.146;2023-04-24T10:53:24;8.98;;;5.07;;
61407;SDS011;47274;43.054;25.146;2023-04-24T10:56:08;9.85;;;5.05;;
61407;SDS011;47274;43.054;25.146;2023-04-24T10:58:42;10.75;;;5.10;;
61407;SDS011;47274;43.054;25.146;2023-04-24T11:01:28;12.02;;;4.65;;
61407;SDS011;47274;43.054;25.146;2023-04-24T11:04:22;8.55;;;4.80;;
61407;SDS011;47274;43.054;25.146;2023-04-24T11:06:54;9.98;;;4.90;;
61407;SDS011;47274;43.054;25.146;2023-04-24T11:09:20;9.77;;;4.93;;
61407;SDS011;47274;43.054;25.146;2023-04-24T11:11:46;11.05;;;5.05;;
61407;SDS011;47274;43.054;25.146;2023-04-24T11:14:18;9.07;;;4.82;;
61407;SDS011;47274;43.054;25.146;2023-04-24T11:16:56;11.63;;;5.40;;
61407;SDS011;47274;43.054;25.146;2023-04-24T11:19:25;10.23;;;5.10;;
61407;SDS011;47274;43.054;25.146;2023-04-24T11:21:56;10.02;;;5.43;;
61407;SDS011;47274;43.054;25.146;2023-04-24T11:24:30;7.53;;;4.93;;
61407;SDS011;47274;43.054;25.146;2023-04-24T11:32:23;8.45;;;5.00;;
61407;SDS011;47274;43.054;25.146;2023-04-24T11:34:52;10.13;;;5.22;;
61407;SDS011;47274;43.054;25.146;2023-04-24T11:37:23;10.07;;;4.47;;
61407;SDS011;47274;43.054;25.146;2023-04-24T11:39:52;7.85;;;4.57;;
61407;SDS011;47274;43.054;25.146;2023-04-24T11:42:20;10.13;;;4.97;;
61407;SDS011;47274;43.054;25.146;2023-04-24T11:44:59;11.05;;;5.47;;
61407;SDS011;47274;43.054;25.146;2023-04-24T11:47:30;11.75;;;5.60;;
61407;SDS011;47274;43.054;25.146;2023-04-24T11:52:26;15.27;;;6.57;;
61407;SDS011;47274;43.054;25.146;2023-04-24T11:54:52;9.52;;;5.22;;
61407;SDS011;47274;43.054;25.146;2023-04-24T11:57:19;10.80;;;4.38;;
61407;SDS011;47274;43.054;25.146;2023-04-24T11:59:46;8.55;;;4.47;;
61407;SDS011;47274;43.054;25.146;2023-04-24T12:02:21;8.38;;;4.47;;
61407;SDS011;47274;43.054;25.146;2023-04-24T12:04:48;12.63;;;6.07;;
61407;SDS011;47274;43.054;25.146;2023-04-24T12:07:14;9.85;;;4.90;;
61407;SDS011;47274;43.054;25.146;2023-04-24T12:09:40;8.32;;;4.40;;
61407;SDS011;47274;43.054;25.146;2023-04-24T12:12:20;7.53;;;4.45;;
61407;SDS011;47274;43.054;25.146;2023-04-24T12:14:55;8.48;;;4.22;;
61407;SDS011;47274;43.054;25.146;2023-04-24T12:17:26;6.80;;;4.25;;
61407;SDS011;47274;43.054;25.146;2023-04-24T12:19:57;10.23;;;5.13;;
61407;SDS011;47274;43.054;25.146;2023-04-24T12:22:28;6.78;;;3.90;;
61407;SDS011;47274;43.054;25.146;2023-04-24T12:25:09;6.97;;;4.05;;
61407;SDS011;47274;43.054;25.146;2023-04-24T12:27:35;9.10;;;4.32;;
61407;SDS011;47274;43.054;25.146;2023-04-24T12:30:02;7.53;;;3.90;;
61407;SDS011;47274;43.054;25.146;2023-04-24T12:32:30;7.97;;;4.22;;
61407;SDS011;47274;43.054;25.146;2023-04-24T12:34:56;5.93;;;4.10;;
61407;SDS011;47274;43.054;25.146;2023-04-24T12:37:23;6.85;;;3.88;;
61407;SDS011;47274;43.054;25.146;2023-04-24T12:40:01;7.13;;;4.05;;
61407;SDS011;47274;43.054;25.146;2023-04-24T12:42:27;6.55;;;4.20;;
61407;SDS011;47274;43.054;25.146;2023-04-24T12:44:58;5.50;;;3.78;;
61407;SDS011;47274;43.054;25.146;2023-04-24T12:47:27;8.27;;;3.90;;
61407;SDS011;47274;43.054;25.146;2023-04-24T12:49:53;6.53;;;3.72;;
61407;SDS011;47274;43.054;25.146;2023-04-24T12:52:21;4.90;;;3.60;;
61407;SDS011;47274;43.054;25.146;2023-04-24T12:54:49;7.22;;;4.00;;
61407;SDS011;47274;43.054;25.146;2023-04-24T12:57:16;6.15;;;3.78;;
61407;SDS011;47274;43.054;25.146;2023-04-24T12:59:43;8.27;;;3.92;;
61407;SDS011;47274;43.054;25.146;2023-04-24T13:02:09;7.45;;;3.85;;
61407;SDS011;47274;43.054;25.146;2023-04-24T13:04:36;8.07;;;4.18;;
61407;SDS011;47274;43.054;25.146;2023-04-24T13:07:01;8.27;;;4.53;;
61407;SDS011;47274;43.054;25.146;2023-04-24T13:09:30;9.40;;;4.60;;
61407;SDS011;47274;43.054;25.146;2023-04-24T13:11:56;10.00;;;4.40;;
61407;SDS011;47274;43.054;25.146;2023-04-24T13:14:28;6.18;;;3.80;;
61407;SDS011;47274;43.054;25.146;2023-04-24T13:16:57;9.00;;;4.30;;
61407;SDS011;47274;43.054;25.146;2023-04-24T13:19:26;8.00;;;4.30;;
61407;SDS011;47274;43.054;25.146;2023-04-24T13:21:54;9.07;;;4.05;;
61407;SDS011;47274;43.054;25.146;2023-04-24T13:24:22;7.45;;;4.35;;
61407;SDS011;47274;43.054;25.146;2023-04-24T13:27:05;8.77;;;4.10;;
61407;SDS011;47274;43.054;25.146;2023-04-24T13:29:40;6.15;;;3.67;;
61407;SDS011;47274;43.054;25.146;2023-04-24T13:32:06;5.05;;;3.60;;
61407;SDS011;47274;43.054;25.146;2023-04-24T13:34:33;5.18;;;3.72;;
61407;SDS011;47274;43.054;25.146;2023-04-24T13:37:02;6.78;;;4.03;;
61407;SDS011;47274;43.054;25.146;2023-04-24T13:39:33;6.80;;;4.10;;
61407;SDS011;47274;43.054;25.146;2023-04-24T13:41:58;9.00;;;4.10;;
61407;SDS011;47274;43.054;25.146;2023-04-24T13:44:24;7.65;;;4.07;;
61407;SDS011;47274;43.054;25.146;2023-04-24T13:46:51;7.78;;;4.45;;
61407;SDS011;47274;43.054;25.146;2023-04-24T13:49:20;6.35;;;3.97;;
61407;SDS011;47274;43.054;25.146;2023-04-24T13:51:49;8.35;;;3.95;;
61407;SDS011;47274;43.054;25.146;2023-04-24T13:54:16;6.53;;;3.92;;
61407;SDS011;47274;43.054;25.146;2023-04-24T13:56:42;8.85;;;4.40;;
61407;SDS011;47274;43.054;25.146;2023-04-24T13:59:11;9.60;;;4.15;;
61407;SDS011;47274;43.054;25.146;2023-04-24T14:01:38;8.63;;;4.32;;
61407;SDS011;47274;43.054;25.146;2023-04-24T14:04:04;5.50;;;4.10;;
61407;SDS011;47274;43.054;25.146;2023-04-24T14:06:30;7.65;;;3.95;;
61407;SDS011;47274;43.054;25.146;2023-04-24T14:08:56;7.60;;;3.90;;
61407;SDS011;47274;43.054;25.146;2023-04-24T14:11:22;7.13;;;4.10;;
61407;SDS011;47274;43.054;25.146;2023-04-24T14:13:48;9.45;;;4.43;;
61407;SDS011;47274;43.054;25.146;2023-04-24T14:16:14;6.28;;;3.72;;
61407;SDS011;47274;43.054;25.146;2023-04-24T14:18:40;6.57;;;3.90;;
61407;SDS011;47274;43.054;25.146;2023-04-24T14:21:08;8.07;;;4.13;;
61407;SDS011;47274;43.054;25.146;2023-04-24T14:23:36;7.57;;;3.88;;
61407;SDS011;47274;43.054;25.146;2023-04-24T14:26:02;5.15;;;3.90;;
61407;SDS011;47274;43.054;25.146;2023-04-24T14:28:32;7.20;;;3.85;;
61407;SDS011;47274;43.054;25.146;2023-04-24T14:30:58;7.63;;;4.88;;
61407;SDS011;47274;43.054;25.146;2023-04-24T14:33:23;12.90;;;6.22;;
61407;SDS011;47274;43.054;25.146;2023-04-24T14:35:49;13.38;;;5.97;;
61407;SDS011;47274;43.054;25.146;2023-04-24T14:38:15;14.10;;;6.57;;
61407;SDS011;47274;43.054;25.146;2023-04-24T14:40:41;15.73;;;6.07;;
61407;SDS011;47274;43.054;25.146;2023-04-24T14:43:13;16.13;;;6.40;;
61407;SDS011;47274;43.054;25.146;2023-04-24T14:48:06;11.88;;;6.05;;
61407;SDS011;47274;43.054;25.146;2023-04-24T14:50:33;10.70;;;5.93;;